sensor_id;sensor_type;location;lat;lon;timestamp;P1;durP1;ratioP1;P2;durP2;ratioP2
2305;SDS011;1161;51.922;8.896;2022-10-22T00:00:05;8.83;;;4.10;;
2305;SDS011;1161;51.922;8.896;2022-10-22T00:02:33;4.27;;;3.83;;
2305;SDS011;1161;51.922;8.896;2022-10-22T00:05:00;5.47;;;3.83;;
2305;SDS011;1161;51.922;8.896;2022-10-22T00:07:28;9.87;;;4.07;;
2305;SDS011;1161;51.922;8.896;2022-10-22T00:09:55;4.90;;;3.73;;
2305;SDS011;1161;51.922;8.896;2022-10-22T00:12:22;12.10;;;5.07;;
2305;SDS011;1161;51.922;8.896;2022-10-22T00:14:49;3.57;;;3.23;;
2305;SDS011;1161;51.922;8.896;2022-10-22T00:17:16;5.27;;;4.10;;
2305;SDS011;1161;51.922;8.896;2022-10-22T00:19:43;9.80;;;3.53;;
2305;SDS011;1161;51.922;8.896;2022-10-22T00:22:10;11.20;;;4.63;;
2305;SDS011;1161;51.922;8.896;2022-10-22T00:24:38;15.70;;;4.30;;
2305;SDS011;1161;51.922;8.896;2022-10-22T00:27:06;11.20;;;4.17;;
2305;SDS011;1161;51.922;8.896;2022-10-22T00:29:33;10.13;;;4.70;;
2305;SDS011;1161;51.922;8.896;2022-10-22T00:32:00;9.20;;;5.10;;
2305;SDS011;1161;51.922;8.896;2022-10-22T00:34:28;17.37;;;7.60;;
2305;SDS011;1161;51.922;8.896;2022-10-22T00:36:54;7.90;;;7.10;;
2305;SDS011;1161;51.922;8.896;2022-10-22T00:39:22;7.70;;;5.97;;
2305;SDS011;1161;51.922;8.896;2022-10-22T00:41:51;10.67;;;7.87;;
2305;SDS011;1161;51.922;8.896;2022-10-22T00:47:22;7.40;;;6.00;;
2305;SDS011;1161;51.922;8.896;2022-10-22T00:49:50;11.40;;;6.70;;
2305;SDS011;1161;51.922;8.896;2022-10-22T00:52:17;9.83;;;7.03;;
2305;SDS011;1161;51.922;8.896;2022-10-22T00:54:44;10.83;;;7.40;;
2305;SDS011;1161;51.922;8.896;2022-10-22T00:57:12;9.90;;;8.40;;
2305;SDS011;1161;51.922;8.896;2022-10-22T00:59:39;9.27;;;7.43;;
2305;SDS011;1161;51.922;8.896;2022-10-22T01:02:05;11.43;;;8.30;;
2305;SDS011;1161;51.922;8.896;2022-10-22T01:04:32;10.67;;;8.20;;
2305;SDS011;1161;51.922;8.896;2022-10-22T01:06:59;14.00;;;8.97;;
2305;SDS011;1161;51.922;8.896;2022-10-22T01:09:27;13.10;;;7.80;;
2305;SDS011;1161;51.922;8.896;2022-10-22T01:11:59;10.60;;;8.00;;
2305;SDS011;1161;51.922;8.896;2022-10-22T01:14:32;9.30;;;6.80;;
2305;SDS011;1161;51.922;8.896;2022-10-22T01:17:03;9.83;;;7.53;;
2305;SDS011;1161;51.922;8.896;2022-10-22T01:19:45;36.33;;;8.17;;
2305;SDS011;1161;51.922;8.896;2022-10-22T01:22:18;15.70;;;9.50;;
2305;SDS011;1161;51.922;8.896;2022-10-22T01:24:48;8.90;;;7.60;;
2305;SDS011;1161;51.922;8.896;2022-10-22T01:27:22;11.73;;;7.07;;
2305;SDS011;1161;51.922;8.896;2022-10-22T01:29:54;23.60;;;10.63;;
2305;SDS011;1161;51.922;8.896;2022-10-22T01:32:24;11.57;;;7.50;;
2305;SDS011;1161;51.922;8.896;2022-10-22T01:34:52;12.23;;;8.57;;
2305;SDS011;1161;51.922;8.896;2022-10-22T01:37:20;36.60;;;8.20;;
2305;SDS011;1161;51.922;8.896;2022-10-22T01:39:49;11.53;;;8.00;;
2305;SDS011;1161;51.922;8.896;2022-10-22T01:42:17;20.67;;;9.73;;
2305;SDS011;1161;51.922;8.896;2022-10-22T01:44:43;15.23;;;8.57;;
2305;SDS011;1161;51.922;8.896;2022-10-22T01:47:15;14.57;;;9.00;;
2305;SDS011;1161;51.922;8.896;2022-10-22T01:49:54;16.50;;;9.30;;
2305;SDS011;1161;51.922;8.896;2022-10-22T01:52:49;17.97;;;9.07;;
2305;SDS011;1161;51.922;8.896;2022-10-22T01:55:26;12.37;;;8.17;;
2305;SDS011;1161;51.922;8.896;2022-10-22T01:58:05;11.27;;;8.93;;
2305;SDS011;1161;51.922;8.896;2022-10-22T02:00:39;19.50;;;8.70;;
2305;SDS011;1161;51.922;8.896;2022-10-22T02:03:12;15.73;;;7.03;;
2305;SDS011;1161;51.922;8.896;2022-10-22T02:05:42;13.43;;;8.70;;
2305;SDS011;1161;51.922;8.896;2022-10-22T02:08:11;18.47;;;8.57;;
2305;SDS011;1161;51.922;8.896;2022-10-22T02:10:41;16.03;;;8.47;;
2305;SDS011;1161;51.922;8.896;2022-10-22T02:13:11;20.13;;;9.87;;
2305;SDS011;1161;51.922;8.896;2022-10-22T02:15:41;21.33;;;10.97;;
2305;SDS011;1161;51.922;8.896;2022-10-22T02:18:08;14.10;;;10.33;;
2305;SDS011;1161;51.922;8.896;2022-10-22T02:20:38;18.33;;;9.33;;
2305;SDS011;1161;51.922;8.896;2022-10-22T02:23:06;15.13;;;9.37;;
2305;SDS011;1161;51.922;8.896;2022-10-22T02:25:34;12.63;;;9.47;;
2305;SDS011;1161;51.922;8.896;2022-10-22T02:28:03;26.73;;;9.80;;
2305;SDS011;1161;51.922;8.896;2022-10-22T02:30:37;16.20;;;10.00;;
2305;SDS011;1161;51.922;8.896;2022-10-22T02:33:05;21.70;;;10.20;;
2305;SDS011;1161;51.922;8.896;2022-10-22T02:35:34;17.77;;;8.83;;
2305;SDS011;1161;51.922;8.896;2022-10-22T02:38:03;16.00;;;10.17;;
2305;SDS011;1161;51.922;8.896;2022-10-22T02:40:30;19.80;;;9.40;;
2305;SDS011;1161;51.922;8.896;2022-10-22T02:42:58;14.83;;;7.80;;
2305;SDS011;1161;51.922;8.896;2022-10-22T02:45:25;13.90;;;7.07;;
2305;SDS011;1161;51.922;8.896;2022-10-22T02:47:52;19.03;;;10.03;;
2305;SDS011;1161;51.922;8.896;2022-10-22T02:50:19;13.77;;;9.03;;
2305;SDS011;1161;51.922;8.896;2022-10-22T02:52:47;25.20;;;10.47;;
2305;SDS011;1161;51.922;8.896;2022-10-22T02:55:14;16.40;;;8.57;;
2305;SDS011;1161;51.922;8.896;2022-10-22T02:57:41;17.10;;;8.80;;
2305;SDS011;1161;51.922;8.896;2022-10-22T03:00:08;18.13;;;8.60;;
2305;SDS011;1161;51.922;8.896;2022-10-22T03:02:36;15.70;;;8.57;;
2305;SDS011;1161;51.922;8.896;2022-10-22T03:05:05;14.60;;;8.57;;
2305;SDS011;1161;51.922;8.896;2022-10-22T03:07:33;8.50;;;6.93;;
2305;SDS011;1161;51.922;8.896;2022-10-22T03:10:01;22.23;;;10.23;;
2305;SDS011;1161;51.922;8.896;2022-10-22T03:12:29;24.30;;;8.30;;
2305;SDS011;1161;51.922;8.896;2022-10-22T03:14:56;8.37;;;6.20;;
2305;SDS011;1161;51.922;8.896;2022-10-22T03:17:24;12.27;;;8.30;;
2305;SDS011;1161;51.922;8.896;2022-10-22T03:19:50;15.47;;;8.90;;
2305;SDS011;1161;51.922;8.896;2022-10-22T03:22:18;12.40;;;8.57;;
2305;SDS011;1161;51.922;8.896;2022-10-22T03:24:50;13.93;;;9.80;;
2305;SDS011;1161;51.922;8.896;2022-10-22T03:27:20;18.43;;;11.43;;
2305;SDS011;1161;51.922;8.896;2022-10-22T03:29:48;20.63;;;12.50;;
2305;SDS011;1161;51.922;8.896;2022-10-22T03:32:15;18.47;;;12.73;;
2305;SDS011;1161;51.922;8.896;2022-10-22T03:34:43;23.43;;;13.37;;
2305;SDS011;1161;51.922;8.896;2022-10-22T03:37:10;24.27;;;13.47;;
2305;SDS011;1161;51.922;8.896;2022-10-22T03:39:37;21.47;;;13.23;;
2305;SDS011;1161;51.922;8.896;2022-10-22T03:42:05;18.03;;;13.00;;
2305;SDS011;1161;51.922;8.896;2022-10-22T03:44:35;30.37;;;14.90;;
2305;SDS011;1161;51.922;8.896;2022-10-22T03:47:02;21.57;;;12.10;;
2305;SDS011;1161;51.922;8.896;2022-10-22T03:49:30;23.27;;;14.10;;
2305;SDS011;1161;51.922;8.896;2022-10-22T03:51:57;17.00;;;11.57;;
2305;SDS011;1161;51.922;8.896;2022-10-22T03:54:27;22.97;;;13.60;;
2305;SDS011;1161;51.922;8.896;2022-10-22T03:56:53;31.43;;;12.23;;
2305;SDS011;1161;51.922;8.896;2022-10-22T03:59:21;28.07;;;13.20;;
2305;SDS011;1161;51.922;8.896;2022-10-22T04:01:49;33.27;;;16.37;;
2305;SDS011;1161;51.922;8.896;2022-10-22T04:04:16;34.40;;;17.03;;
2305;SDS011;1161;51.922;8.896;2022-10-22T04:06:43;31.77;;;16.33;;
2305;SDS011;1161;51.922;8.896;2022-10-22T04:09:10;30.87;;;17.30;;
2305;SDS011;1161;51.922;8.896;2022-10-22T04:11:39;35.97;;;19.20;;
2305;SDS011;1161;51.922;8.896;2022-10-22T04:14:06;26.27;;;16.03;;
2305;SDS011;1161;51.922;8.896;2022-10-22T04:16:36;43.20;;;19.20;;
2305;SDS011;1161;51.922;8.896;2022-10-22T04:19:06;37.80;;;19.17;;
2305;SDS011;1161;51.922;8.896;2022-10-22T04:21:33;33.33;;;17.37;;
2305;SDS011;1161;51.922;8.896;2022-10-22T04:24:01;39.27;;;17.30;;
2305;SDS011;1161;51.922;8.896;2022-10-22T04:26:27;26.80;;;16.30;;
2305;SDS011;1161;51.922;8.896;2022-10-22T04:28:54;37.23;;;17.83;;
2305;SDS011;1161;51.922;8.896;2022-10-22T04:31:22;30.73;;;17.53;;
2305;SDS011;1161;51.922;8.896;2022-10-22T04:33:52;27.10;;;17.30;;
2305;SDS011;1161;51.922;8.896;2022-10-22T04:36:21;27.30;;;15.63;;
2305;SDS011;1161;51.922;8.896;2022-10-22T04:38:51;32.33;;;19.47;;
2305;SDS011;1161;51.922;8.896;2022-10-22T04:41:20;46.63;;;20.93;;
2305;SDS011;1161;51.922;8.896;2022-10-22T04:43:48;27.83;;;15.40;;
2305;SDS011;1161;51.922;8.896;2022-10-22T04:46:16;28.60;;;15.27;;
2305;SDS011;1161;51.922;8.896;2022-10-22T04:48:44;33.60;;;17.13;;
2305;SDS011;1161;51.922;8.896;2022-10-22T04:51:12;25.77;;;14.93;;
2305;SDS011;1161;51.922;8.896;2022-10-22T04:53:42;33.83;;;16.20;;
2305;SDS011;1161;51.922;8.896;2022-10-22T04:56:10;36.80;;;17.80;;
2305;SDS011;1161;51.922;8.896;2022-10-22T04:58:41;26.77;;;16.37;;
2305;SDS011;1161;51.922;8.896;2022-10-22T05:01:09;30.07;;;15.10;;
2305;SDS011;1161;51.922;8.896;2022-10-22T05:03:37;26.57;;;15.87;;
2305;SDS011;1161;51.922;8.896;2022-10-22T05:06:19;29.97;;;17.87;;
2305;SDS011;1161;51.922;8.896;2022-10-22T05:08:51;33.37;;;17.37;;
2305;SDS011;1161;51.922;8.896;2022-10-22T05:11:20;32.17;;;17.37;;
2305;SDS011;1161;51.922;8.896;2022-10-22T05:13:47;30.00;;;17.40;;
2305;SDS011;1161;51.922;8.896;2022-10-22T05:16:15;26.70;;;14.20;;
2305;SDS011;1161;51.922;8.896;2022-10-22T05:18:42;27.80;;;14.70;;
2305;SDS011;1161;51.922;8.896;2022-10-22T05:21:10;36.77;;;15.27;;
2305;SDS011;1161;51.922;8.896;2022-10-22T05:23:42;27.13;;;15.53;;
2305;SDS011;1161;51.922;8.896;2022-10-22T05:26:10;24.83;;;12.70;;
2305;SDS011;1161;51.922;8.896;2022-10-22T05:28:38;21.20;;;12.93;;
2305;SDS011;1161;51.922;8.896;2022-10-22T05:31:09;23.23;;;12.23;;
2305;SDS011;1161;51.922;8.896;2022-10-22T05:33:37;24.23;;;11.43;;
2305;SDS011;1161;51.922;8.896;2022-10-22T05:36:05;27.10;;;11.20;;
2305;SDS011;1161;51.922;8.896;2022-10-22T05:38:34;21.30;;;10.67;;
2305;SDS011;1161;51.922;8.896;2022-10-22T05:41:04;18.00;;;12.00;;
2305;SDS011;1161;51.922;8.896;2022-10-22T05:43:34;17.70;;;9.97;;
2305;SDS011;1161;51.922;8.896;2022-10-22T05:46:02;24.27;;;12.83;;
2305;SDS011;1161;51.922;8.896;2022-10-22T05:48:31;30.77;;;16.90;;
2305;SDS011;1161;51.922;8.896;2022-10-22T05:50:59;47.10;;;23.77;;
2305;SDS011;1161;51.922;8.896;2022-10-22T05:53:31;44.90;;;20.43;;
2305;SDS011;1161;51.922;8.896;2022-10-22T05:55:59;29.20;;;17.90;;
2305;SDS011;1161;51.922;8.896;2022-10-22T05:58:28;33.17;;;19.50;;
2305;SDS011;1161;51.922;8.896;2022-10-22T06:00:59;35.17;;;17.93;;
2305;SDS011;1161;51.922;8.896;2022-10-22T06:03:28;40.40;;;18.63;;
2305;SDS011;1161;51.922;8.896;2022-10-22T06:05:56;33.80;;;17.70;;
2305;SDS011;1161;51.922;8.896;2022-10-22T06:08:24;33.30;;;17.20;;
2305;SDS011;1161;51.922;8.896;2022-10-22T06:10:51;29.70;;;17.20;;
2305;SDS011;1161;51.922;8.896;2022-10-22T06:13:18;34.00;;;17.57;;
2305;SDS011;1161;51.922;8.896;2022-10-22T06:15:47;34.90;;;17.03;;
2305;SDS011;1161;51.922;8.896;2022-10-22T06:18:14;28.80;;;16.53;;
2305;SDS011;1161;51.922;8.896;2022-10-22T06:20:40;38.53;;;20.00;;
2305;SDS011;1161;51.922;8.896;2022-10-22T06:23:09;34.77;;;19.03;;
2305;SDS011;1161;51.922;8.896;2022-10-22T06:25:36;43.70;;;22.57;;
2305;SDS011;1161;51.922;8.896;2022-10-22T06:28:03;45.93;;;21.23;;
2305;SDS011;1161;51.922;8.896;2022-10-22T06:30:30;36.47;;;20.40;;
2305;SDS011;1161;51.922;8.896;2022-10-22T06:32:58;43.57;;;21.43;;
2305;SDS011;1161;51.922;8.896;2022-10-22T06:35:24;45.10;;;20.43;;
2305;SDS011;1161;51.922;8.896;2022-10-22T06:37:51;37.23;;;20.60;;
2305;SDS011;1161;51.922;8.896;2022-10-22T06:40:18;37.90;;;20.70;;
2305;SDS011;1161;51.922;8.896;2022-10-22T06:42:45;38.93;;;21.10;;
2305;SDS011;1161;51.922;8.896;2022-10-22T06:45:11;39.93;;;19.10;;
2305;SDS011;1161;51.922;8.896;2022-10-22T06:47:38;28.67;;;16.83;;
2305;SDS011;1161;51.922;8.896;2022-10-22T06:50:07;28.50;;;16.73;;
2305;SDS011;1161;51.922;8.896;2022-10-22T06:52:34;32.20;;;16.07;;
2305;SDS011;1161;51.922;8.896;2022-10-22T06:55:00;32.63;;;15.23;;
2305;SDS011;1161;51.922;8.896;2022-10-22T06:57:28;33.07;;;15.83;;
2305;SDS011;1161;51.922;8.896;2022-10-22T06:59:55;39.23;;;16.77;;
2305;SDS011;1161;51.922;8.896;2022-10-22T07:02:22;31.47;;;17.17;;
2305;SDS011;1161;51.922;8.896;2022-10-22T07:04:50;38.07;;;18.53;;
2305;SDS011;1161;51.922;8.896;2022-10-22T07:07:18;35.47;;;18.37;;
2305;SDS011;1161;51.922;8.896;2022-10-22T07:09:45;25.27;;;16.97;;
2305;SDS011;1161;51.922;8.896;2022-10-22T07:12:13;31.87;;;18.53;;
2305;SDS011;1161;51.922;8.896;2022-10-22T07:14:40;28.43;;;14.90;;
2305;SDS011;1161;51.922;8.896;2022-10-22T07:17:07;26.80;;;16.53;;
2305;SDS011;1161;51.922;8.896;2022-10-22T07:19:33;30.43;;;15.93;;
2305;SDS011;1161;51.922;8.896;2022-10-22T07:22:00;29.60;;;16.00;;
2305;SDS011;1161;51.922;8.896;2022-10-22T07:24:29;33.80;;;16.63;;
2305;SDS011;1161;51.922;8.896;2022-10-22T07:26:56;30.43;;;16.10;;
2305;SDS011;1161;51.922;8.896;2022-10-22T07:29:23;26.90;;;14.13;;
2305;SDS011;1161;51.922;8.896;2022-10-22T07:31:50;26.30;;;16.63;;
2305;SDS011;1161;51.922;8.896;2022-10-22T07:34:16;28.23;;;16.70;;
2305;SDS011;1161;51.922;8.896;2022-10-22T07:36:43;23.30;;;14.10;;
2305;SDS011;1161;51.922;8.896;2022-10-22T07:39:10;24.57;;;13.23;;
2305;SDS011;1161;51.922;8.896;2022-10-22T07:41:39;30.50;;;13.57;;
2305;SDS011;1161;51.922;8.896;2022-10-22T07:44:05;26.73;;;13.97;;
2305;SDS011;1161;51.922;8.896;2022-10-22T07:46:32;29.00;;;14.50;;
2305;SDS011;1161;51.922;8.896;2022-10-22T07:48:59;23.20;;;12.30;;
2305;SDS011;1161;51.922;8.896;2022-10-22T07:51:26;23.00;;;11.50;;
2305;SDS011;1161;51.922;8.896;2022-10-22T07:53:52;24.40;;;14.80;;
2305;SDS011;1161;51.922;8.896;2022-10-22T07:56:19;16.13;;;9.07;;
2305;SDS011;1161;51.922;8.896;2022-10-22T07:58:47;18.23;;;10.57;;
2305;SDS011;1161;51.922;8.896;2022-10-22T08:01:14;16.97;;;9.87;;
2305;SDS011;1161;51.922;8.896;2022-10-22T08:03:40;19.90;;;10.27;;
2305;SDS011;1161;51.922;8.896;2022-10-22T08:06:08;15.87;;;9.60;;
2305;SDS011;1161;51.922;8.896;2022-10-22T08:08:37;15.50;;;9.17;;
2305;SDS011;1161;51.922;8.896;2022-10-22T08:11:04;14.30;;;9.17;;
2305;SDS011;1161;51.922;8.896;2022-10-22T08:13:31;10.50;;;7.90;;
2305;SDS011;1161;51.922;8.896;2022-10-22T08:15:59;11.10;;;7.00;;
2305;SDS011;1161;51.922;8.896;2022-10-22T08:18:26;7.90;;;4.90;;
2305;SDS011;1161;51.922;8.896;2022-10-22T08:20:53;6.13;;;5.03;;
2305;SDS011;1161;51.922;8.896;2022-10-22T08:23:20;10.53;;;4.90;;
2305;SDS011;1161;51.922;8.896;2022-10-22T08:25:47;14.23;;;5.33;;
2305;SDS011;1161;51.922;8.896;2022-10-22T08:28:14;7.80;;;4.13;;
2305;SDS011;1161;51.922;8.896;2022-10-22T08:30:41;4.97;;;4.50;;
2305;SDS011;1161;51.922;8.896;2022-10-22T08:33:10;18.90;;;4.80;;
2305;SDS011;1161;51.922;8.896;2022-10-22T08:35:37;11.03;;;4.57;;
2305;SDS011;1161;51.922;8.896;2022-10-22T08:38:04;4.97;;;3.73;;
2305;SDS011;1161;51.922;8.896;2022-10-22T08:40:31;8.43;;;4.60;;
2305;SDS011;1161;51.922;8.896;2022-10-22T08:45:53;3.70;;;3.40;;
2305;SDS011;1161;51.922;8.896;2022-10-22T08:48:33;11.07;;;3.80;;
2305;SDS011;1161;51.922;8.896;2022-10-22T08:51:06;5.00;;;4.20;;
2305;SDS011;1161;51.922;8.896;2022-10-22T08:53:38;6.40;;;3.53;;
2305;SDS011;1161;51.922;8.896;2022-10-22T08:56:07;9.70;;;4.73;;
2305;SDS011;1161;51.922;8.896;2022-10-22T08:58:35;8.13;;;4.33;;
2305;SDS011;1161;51.922;8.896;2022-10-22T09:01:06;7.57;;;4.20;;
2305;SDS011;1161;51.922;8.896;2022-10-22T09:03:40;7.87;;;4.63;;
2305;SDS011;1161;51.922;8.896;2022-10-22T09:06:12;7.60;;;4.17;;
2305;SDS011;1161;51.922;8.896;2022-10-22T09:08:41;5.33;;;4.10;;
2305;SDS011;1161;51.922;8.896;2022-10-22T09:11:15;5.50;;;4.13;;
2305;SDS011;1161;51.922;8.896;2022-10-22T09:13:47;11.83;;;4.30;;
2305;SDS011;1161;51.922;8.896;2022-10-22T09:16:15;8.60;;;4.57;;
2305;SDS011;1161;51.922;8.896;2022-10-22T09:18:48;15.07;;;4.17;;
2305;SDS011;1161;51.922;8.896;2022-10-22T09:21:24;9.43;;;5.10;;
2305;SDS011;1161;51.922;8.896;2022-10-22T09:23:56;5.57;;;5.03;;
2305;SDS011;1161;51.922;8.896;2022-10-22T09:26:30;8.77;;;4.40;;
2305;SDS011;1161;51.922;8.896;2022-10-22T09:28:59;9.80;;;4.50;;
2305;SDS011;1161;51.922;8.896;2022-10-22T09:31:26;7.43;;;4.37;;
2305;SDS011;1161;51.922;8.896;2022-10-22T09:33:57;5.13;;;3.80;;
2305;SDS011;1161;51.922;8.896;2022-10-22T09:36:30;18.23;;;3.63;;
2305;SDS011;1161;51.922;8.896;2022-10-22T09:38:57;6.53;;;4.40;;
2305;SDS011;1161;51.922;8.896;2022-10-22T09:41:25;8.73;;;5.40;;
2305;SDS011;1161;51.922;8.896;2022-10-22T09:43:54;10.93;;;4.17;;
2305;SDS011;1161;51.922;8.896;2022-10-22T09:46:21;6.90;;;4.10;;
2305;SDS011;1161;51.922;8.896;2022-10-22T09:48:49;6.80;;;3.70;;
2305;SDS011;1161;51.922;8.896;2022-10-22T09:51:19;4.83;;;4.43;;
2305;SDS011;1161;51.922;8.896;2022-10-22T09:53:54;11.13;;;4.43;;
2305;SDS011;1161;51.922;8.896;2022-10-22T09:56:24;8.33;;;3.50;;
2305;SDS011;1161;51.922;8.896;2022-10-22T09:58:54;7.43;;;3.53;;
2305;SDS011;1161;51.922;8.896;2022-10-22T10:01:23;15.47;;;4.30;;
2305;SDS011;1161;51.922;8.896;2022-10-22T10:03:51;12.00;;;4.03;;
2305;SDS011;1161;51.922;8.896;2022-10-22T10:06:20;13.80;;;4.10;;
2305;SDS011;1161;51.922;8.896;2022-10-22T10:08:48;4.50;;;3.20;;
2305;SDS011;1161;51.922;8.896;2022-10-22T10:11:16;11.77;;;3.70;;
2305;SDS011;1161;51.922;8.896;2022-10-22T10:13:49;6.70;;;3.70;;
2305;SDS011;1161;51.922;8.896;2022-10-22T10:16:26;8.60;;;3.77;;
2305;SDS011;1161;51.922;8.896;2022-10-22T10:19:06;13.63;;;5.23;;
2305;SDS011;1161;51.922;8.896;2022-10-22T10:21:41;13.93;;;4.80;;
2305;SDS011;1161;51.922;8.896;2022-10-22T10:24:16;8.30;;;4.13;;
2305;SDS011;1161;51.922;8.896;2022-10-22T10:26:49;5.53;;;4.27;;
2305;SDS011;1161;51.922;8.896;2022-10-22T10:29:24;6.90;;;3.90;;
2305;SDS011;1161;51.922;8.896;2022-10-22T10:32:01;8.70;;;4.80;;
2305;SDS011;1161;51.922;8.896;2022-10-22T10:34:35;12.03;;;4.57;;
2305;SDS011;1161;51.922;8.896;2022-10-22T10:37:12;3.13;;;2.27;;
2305;SDS011;1161;51.922;8.896;2022-10-22T10:39:45;12.27;;;3.70;;
2305;SDS011;1161;51.922;8.896;2022-10-22T10:42:30;12.23;;;3.70;;
2305;SDS011;1161;51.922;8.896;2022-10-22T10:45:02;12.10;;;6.30;;
2305;SDS011;1161;51.922;8.896;2022-10-22T10:47:52;12.53;;;7.40;;
2305;SDS011;1161;51.922;8.896;2022-10-22T10:50:37;11.00;;;4.27;;
2305;SDS011;1161;51.922;8.896;2022-10-22T10:53:13;8.90;;;3.67;;
2305;SDS011;1161;51.922;8.896;2022-10-22T10:55:48;8.53;;;4.73;;
2305;SDS011;1161;51.922;8.896;2022-10-22T10:58:20;12.33;;;3.87;;
2305;SDS011;1161;51.922;8.896;2022-10-22T11:00:52;15.93;;;4.73;;
2305;SDS011;1161;51.922;8.896;2022-10-22T11:06:26;6.50;;;3.60;;
2305;SDS011;1161;51.922;8.896;2022-10-22T11:08:58;8.63;;;4.20;;
2305;SDS011;1161;51.922;8.896;2022-10-22T11:11:29;5.67;;;2.97;;
2305;SDS011;1161;51.922;8.896;2022-10-22T11:14:00;11.23;;;3.73;;
2305;SDS011;1161;51.922;8.896;2022-10-22T11:16:31;12.93;;;3.43;;
2305;SDS011;1161;51.922;8.896;2022-10-22T11:19:02;14.00;;;3.40;;
2305;SDS011;1161;51.922;8.896;2022-10-22T11:21:31;6.90;;;3.83;;
2305;SDS011;1161;51.922;8.896;2022-10-22T11:24:03;13.20;;;3.10;;
2305;SDS011;1161;51.922;8.896;2022-10-22T11:26:37;9.70;;;3.00;;
2305;SDS011;1161;51.922;8.896;2022-10-22T11:29:09;5.70;;;2.70;;
2305;SDS011;1161;51.922;8.896;2022-10-22T11:31:38;9.97;;;2.93;;
2305;SDS011;1161;51.922;8.896;2022-10-22T11:34:06;7.77;;;3.33;;
2305;SDS011;1161;51.922;8.896;2022-10-22T11:36:38;9.50;;;2.83;;
2305;SDS011;1161;51.922;8.896;2022-10-22T11:39:14;6.27;;;3.20;;
2305;SDS011;1161;51.922;8.896;2022-10-22T11:41:56;9.70;;;3.20;;
2305;SDS011;1161;51.922;8.896;2022-10-22T11:44:23;6.60;;;2.93;;
2305;SDS011;1161;51.922;8.896;2022-10-22T11:46:54;5.33;;;4.83;;
2305;SDS011;1161;51.922;8.896;2022-10-22T11:49:23;12.30;;;3.90;;
2305;SDS011;1161;51.922;8.896;2022-10-22T11:51:52;31.90;;;11.60;;
2305;SDS011;1161;51.922;8.896;2022-10-22T11:54:39;17.47;;;8.47;;
2305;SDS011;1161;51.922;8.896;2022-10-22T11:57:19;8.60;;;3.70;;
2305;SDS011;1161;51.922;8.896;2022-10-22T11:59:49;13.23;;;3.63;;
2305;SDS011;1161;51.922;8.896;2022-10-22T12:02:22;13.43;;;4.17;;
2305;SDS011;1161;51.922;8.896;2022-10-22T12:04:50;16.83;;;6.57;;
2305;SDS011;1161;51.922;8.896;2022-10-22T12:07:29;15.03;;;3.87;;
2305;SDS011;1161;51.922;8.896;2022-10-22T12:09:59;22.53;;;8.63;;
2305;SDS011;1161;51.922;8.896;2022-10-22T12:12:33;11.53;;;4.20;;
2305;SDS011;1161;51.922;8.896;2022-10-22T12:15:01;6.40;;;3.30;;
2305;SDS011;1161;51.922;8.896;2022-10-22T12:17:45;14.10;;;5.20;;
2305;SDS011;1161;51.922;8.896;2022-10-22T12:20:12;13.93;;;4.90;;
2305;SDS011;1161;51.922;8.896;2022-10-22T12:22:41;7.00;;;4.27;;
2305;SDS011;1161;51.922;8.896;2022-10-22T12:25:15;12.73;;;4.67;;
2305;SDS011;1161;51.922;8.896;2022-10-22T12:27:48;9.77;;;4.80;;
2305;SDS011;1161;51.922;8.896;2022-10-22T12:30:17;16.03;;;5.27;;
2305;SDS011;1161;51.922;8.896;2022-10-22T12:32:46;14.70;;;4.67;;
2305;SDS011;1161;51.922;8.896;2022-10-22T12:35:14;4.60;;;4.20;;
2305;SDS011;1161;51.922;8.896;2022-10-22T12:37:42;17.50;;;5.60;;
2305;SDS011;1161;51.922;8.896;2022-10-22T12:40:16;9.90;;;5.10;;
2305;SDS011;1161;51.922;8.896;2022-10-22T12:42:48;8.07;;;4.53;;
2305;SDS011;1161;51.922;8.896;2022-10-22T12:45:15;12.00;;;5.60;;
2305;SDS011;1161;51.922;8.896;2022-10-22T12:47:44;11.40;;;4.90;;
2305;SDS011;1161;51.922;8.896;2022-10-22T12:50:14;6.20;;;4.40;;
2305;SDS011;1161;51.922;8.896;2022-10-22T12:52:43;7.30;;;4.37;;
2305;SDS011;1161;51.922;8.896;2022-10-22T12:55:13;8.97;;;5.67;;
2305;SDS011;1161;51.922;8.896;2022-10-22T12:57:44;8.63;;;4.60;;
2305;SDS011;1161;51.922;8.896;2022-10-22T13:00:19;11.87;;;5.00;;
2305;SDS011;1161;51.922;8.896;2022-10-22T13:02:47;9.00;;;5.20;;
2305;SDS011;1161;51.922;8.896;2022-10-22T13:05:16;13.37;;;5.17;;
2305;SDS011;1161;51.922;8.896;2022-10-22T13:07:47;12.27;;;6.03;;
2305;SDS011;1161;51.922;8.896;2022-10-22T13:10:18;16.10;;;6.37;;
2305;SDS011;1161;51.922;8.896;2022-10-22T13:12:49;12.20;;;4.53;;
2305;SDS011;1161;51.922;8.896;2022-10-22T13:15:17;6.43;;;5.50;;
2305;SDS011;1161;51.922;8.896;2022-10-22T13:17:45;5.57;;;4.80;;
2305;SDS011;1161;51.922;8.896;2022-10-22T13:20:17;9.57;;;4.10;;
2305;SDS011;1161;51.922;8.896;2022-10-22T13:22:52;8.23;;;4.50;;
2305;SDS011;1161;51.922;8.896;2022-10-22T13:25:23;7.80;;;4.20;;
2305;SDS011;1161;51.922;8.896;2022-10-22T13:27:51;5.20;;;3.23;;
2305;SDS011;1161;51.922;8.896;2022-10-22T13:30:20;8.50;;;3.47;;
2305;SDS011;1161;51.922;8.896;2022-10-22T13:32:48;15.47;;;3.60;;
2305;SDS011;1161;51.922;8.896;2022-10-22T13:35:17;10.03;;;3.67;;
2305;SDS011;1161;51.922;8.896;2022-10-22T13:37:47;4.50;;;3.47;;
2305;SDS011;1161;51.922;8.896;2022-10-22T13:40:14;10.40;;;4.33;;
2305;SDS011;1161;51.922;8.896;2022-10-22T13:42:42;9.30;;;3.50;;
2305;SDS011;1161;51.922;8.896;2022-10-22T13:45:08;11.63;;;4.63;;
2305;SDS011;1161;51.922;8.896;2022-10-22T13:47:35;9.40;;;4.63;;
2305;SDS011;1161;51.922;8.896;2022-10-22T13:50:03;9.57;;;2.70;;
2305;SDS011;1161;51.922;8.896;2022-10-22T13:52:32;4.93;;;3.17;;
2305;SDS011;1161;51.922;8.896;2022-10-22T13:55:01;3.60;;;3.30;;
2305;SDS011;1161;51.922;8.896;2022-10-22T13:57:28;6.73;;;3.20;;
2305;SDS011;1161;51.922;8.896;2022-10-22T13:59:56;6.40;;;4.00;;
2305;SDS011;1161;51.922;8.896;2022-10-22T14:02:23;9.80;;;4.10;;
2305;SDS011;1161;51.922;8.896;2022-10-22T14:04:50;4.17;;;3.70;;
2305;SDS011;1161;51.922;8.896;2022-10-22T14:07:18;7.33;;;3.47;;
2305;SDS011;1161;51.922;8.896;2022-10-22T14:09:44;6.00;;;3.03;;
2305;SDS011;1161;51.922;8.896;2022-10-22T14:12:12;13.80;;;3.47;;
2305;SDS011;1161;51.922;8.896;2022-10-22T14:14:39;9.83;;;2.97;;
2305;SDS011;1161;51.922;8.896;2022-10-22T14:17:09;3.77;;;3.40;;
2305;SDS011;1161;51.922;8.896;2022-10-22T14:19:39;5.03;;;3.30;;
2305;SDS011;1161;51.922;8.896;2022-10-22T14:22:07;9.33;;;3.00;;
2305;SDS011;1161;51.922;8.896;2022-10-22T14:24:35;7.53;;;2.70;;
2305;SDS011;1161;51.922;8.896;2022-10-22T14:27:02;5.90;;;3.03;;
2305;SDS011;1161;51.922;8.896;2022-10-22T14:29:29;14.77;;;4.10;;
2305;SDS011;1161;51.922;8.896;2022-10-22T14:31:56;3.47;;;3.20;;
2305;SDS011;1161;51.922;8.896;2022-10-22T14:34:24;11.30;;;3.30;;
2305;SDS011;1161;51.922;8.896;2022-10-22T14:36:51;10.60;;;3.67;;
2305;SDS011;1161;51.922;8.896;2022-10-22T14:39:17;5.33;;;2.80;;
2305;SDS011;1161;51.922;8.896;2022-10-22T14:41:45;9.10;;;5.30;;
2305;SDS011;1161;51.922;8.896;2022-10-22T14:44:12;15.13;;;10.20;;
2305;SDS011;1161;51.922;8.896;2022-10-22T14:46:39;11.30;;;3.97;;
2305;SDS011;1161;51.922;8.896;2022-10-22T14:49:08;10.47;;;3.10;;
2305;SDS011;1161;51.922;8.896;2022-10-22T14:51:36;4.33;;;2.77;;
2305;SDS011;1161;51.922;8.896;2022-10-22T14:54:03;3.07;;;2.43;;
2305;SDS011;1161;51.922;8.896;2022-10-22T14:56:30;4.10;;;2.60;;
2305;SDS011;1161;51.922;8.896;2022-10-22T14:58:57;3.13;;;2.23;;
2305;SDS011;1161;51.922;8.896;2022-10-22T15:01:23;5.23;;;2.60;;
2305;SDS011;1161;51.922;8.896;2022-10-22T15:03:50;7.13;;;3.00;;
2305;SDS011;1161;51.922;8.896;2022-10-22T15:06:17;5.70;;;3.13;;
2305;SDS011;1161;51.922;8.896;2022-10-22T15:08:45;4.00;;;2.70;;
2305;SDS011;1161;51.922;8.896;2022-10-22T15:11:11;6.10;;;2.83;;
2305;SDS011;1161;51.922;8.896;2022-10-22T15:13:38;4.63;;;2.43;;
2305;SDS011;1161;51.922;8.896;2022-10-22T15:16:06;4.43;;;3.20;;
2305;SDS011;1161;51.922;8.896;2022-10-22T15:18:34;6.00;;;3.27;;
2305;SDS011;1161;51.922;8.896;2022-10-22T15:21:02;4.13;;;3.80;;
2305;SDS011;1161;51.922;8.896;2022-10-22T15:23:30;2.53;;;2.13;;